Airfield :
LOGIN :

Register | Disclaimer

   EN    FR    IT 

 










Legend :    VFR   Marginal VFR   IFR   Intensive IFR   Very Intensive IFR
Visi :
Ceiling :
>= 8 km
>= 3000ft
5 to 8 km
1000 to 3000 ft
1500m to 5 km
500 to 1000 ft
800 to 1500m
200 to 500 ft
< 800m
< 200 ft
Symbols :   Thunderstorms  Fog  Heavy snow  Heavy precipitations  Wind > 20 kt
SIGMETs :     Misc.  Thunderstorms  Icing  Turbulence  Mountain Waves  Volcanic Ashes







- Airport Elevation : 699 ft
- IATA code : PAD


EDLP - Paderborn Lippstadt

CURRENT METAR :
  • 261750Z 27006KT 240V320 9999 SCT016 BKN018 OVC024 06/05 Q1029

EXPIRED METARs :
  • 261720Z 28005KT 240V320 9999 BKN017 06/05 Q1028
  • 261650Z 29006KT 240V330 9999 BKN017 06/05 Q1029
  • 261620Z 28006KT 240V320 9999 BKN016 06/06 Q1029
  • 261550Z 29005KT 260V330 9999 FEW007 BKN015 OVC020 05/05 Q1028
  • 261520Z 31009G19KT 270V350 9000 -RA SCT011 BKN013 OVC020 06/05 Q1028

TAF TAF EDLP
Valid from the 26 at 18:00 until the 27 at 18:00 UTC


261700Z 2618/2718 26006KT 9999 BKN015
TEMPO 2618/2703 BKN010
BECMG 2703/2706 3500 BR BKN007
TEMPO 2706/2709 2000 -DZ BR BKN004
BECMG 2709/2712 8000 BKN011
TEMPO 2713/2718 BKN015
No reported NOTAMs for that airfield.



MET'MAP, your aeronautical weather chart ! - Copyright ORBIFLY December 2007 - Disclaimer

ORBIFLY MET'MAP TEAM :

Programming & Development : Alexandra Zaïnal
Concept & Development : Baudouin d'Aumeries
Co-Development & Prog : Marc-Olivier Méhu
Technical & hardware support : Manuel Goepfert

Contact : metmap@orbifly.com




SOURCES & CREDITS :

   NOAA